sensor_id;sensor_type;location;lat;lon;timestamp;P1;durP1;ratioP1;P2;durP2;ratioP2
37715;SDS011;23562;50.540;12.504;2023-07-13T00:01:37;2.38;;;1.75;;
37715;SDS011;23562;50.540;12.504;2023-07-13T00:04:03;6.68;;;2.05;;
37715;SDS011;23562;50.540;12.504;2023-07-13T00:06:29;4.63;;;2.20;;
37715;SDS011;23562;50.540;12.504;2023-07-13T00:08:57;4.32;;;2.08;;
37715;SDS011;23562;50.540;12.504;2023-07-13T00:11:22;4.25;;;2.00;;
37715;SDS011;23562;50.540;12.504;2023-07-13T00:13:47;3.43;;;2.10;;
37715;SDS011;23562;50.540;12.504;2023-07-13T00:16:13;5.32;;;2.35;;
37715;SDS011;23562;50.540;12.504;2023-07-13T00:18:39;4.22;;;2.08;;
37715;SDS011;23562;50.540;12.504;2023-07-13T00:21:04;5.00;;;2.40;;
37715;SDS011;23562;50.540;12.504;2023-07-13T00:23:33;3.35;;;2.33;;
37715;SDS011;23562;50.540;12.504;2023-07-13T00:26:01;2.45;;;2.10;;
37715;SDS011;23562;50.540;12.504;2023-07-13T00:28:26;3.80;;;2.65;;
37715;SDS011;23562;50.540;12.504;2023-07-13T00:30:52;3.47;;;2.40;;
37715;SDS011;23562;50.540;12.504;2023-07-13T00:33:17;2.10;;;1.70;;
37715;SDS011;23562;50.540;12.504;2023-07-13T00:35:42;3.45;;;2.00;;
37715;SDS011;23562;50.540;12.504;2023-07-13T00:38:08;3.17;;;1.80;;
37715;SDS011;23562;50.540;12.504;2023-07-13T00:40:33;5.10;;;1.90;;
37715;SDS011;23562;50.540;12.504;2023-07-13T00:42:59;4.05;;;1.80;;
37715;SDS011;23562;50.540;12.504;2023-07-13T00:47:49;3.63;;;1.85;;
37715;SDS011;23562;50.540;12.504;2023-07-13T00:50:15;8.57;;;1.92;;
37715;SDS011;23562;50.540;12.504;2023-07-13T00:52:43;4.25;;;1.95;;
37715;SDS011;23562;50.540;12.504;2023-07-13T00:55:09;4.22;;;1.98;;
37715;SDS011;23562;50.540;12.504;2023-07-13T00:57:36;5.53;;;1.83;;
37715;SDS011;23562;50.540;12.504;2023-07-13T01:00:03;2.95;;;1.90;;
37715;SDS011;23562;50.540;12.504;2023-07-13T01:02:30;5.18;;;2.05;;
37715;SDS011;23562;50.540;12.504;2023-07-13T01:04:56;4.40;;;1.95;;
37715;SDS011;23562;50.540;12.504;2023-07-13T01:07:21;3.47;;;1.90;;
37715;SDS011;23562;50.540;12.504;2023-07-13T01:09:46;2.97;;;2.00;;
37715;SDS011;23562;50.540;12.504;2023-07-13T01:12:11;3.63;;;1.90;;
37715;SDS011;23562;50.540;12.504;2023-07-13T01:14:37;4.68;;;1.80;;
37715;SDS011;23562;50.540;12.504;2023-07-13T01:17:02;5.25;;;1.92;;
37715;SDS011;23562;50.540;12.504;2023-07-13T01:22:03;4.53;;;1.80;;
37715;SDS011;23562;50.540;12.504;2023-07-13T01:24:28;2.95;;;1.80;;
37715;SDS011;23562;50.540;12.504;2023-07-13T01:26:54;3.77;;;2.10;;
37715;SDS011;23562;50.540;12.504;2023-07-13T01:29:19;4.30;;;1.77;;
37715;SDS011;23562;50.540;12.504;2023-07-13T01:31:44;6.90;;;1.77;;
37715;SDS011;23562;50.540;12.504;2023-07-13T01:34:09;2.77;;;1.70;;
37715;SDS011;23562;50.540;12.504;2023-07-13T01:36:34;3.60;;;1.97;;
37715;SDS011;23562;50.540;12.504;2023-07-13T01:39:00;4.93;;;2.10;;
37715;SDS011;23562;50.540;12.504;2023-07-13T01:41:26;2.63;;;1.70;;
37715;SDS011;23562;50.540;12.504;2023-07-13T01:43:51;2.72;;;1.92;;
37715;SDS011;23562;50.540;12.504;2023-07-13T01:46:16;2.97;;;2.00;;
37715;SDS011;23562;50.540;12.504;2023-07-13T01:48:41;6.22;;;2.17;;
37715;SDS011;23562;50.540;12.504;2023-07-13T01:51:06;3.05;;;2.10;;
37715;SDS011;23562;50.540;12.504;2023-07-13T01:53:31;2.80;;;2.03;;
37715;SDS011;23562;50.540;12.504;2023-07-13T01:55:56;2.22;;;1.80;;
37715;SDS011;23562;50.540;12.504;2023-07-13T01:58:21;3.47;;;1.98;;
37715;SDS011;23562;50.540;12.504;2023-07-13T02:00:48;4.28;;;2.00;;
37715;SDS011;23562;50.540;12.504;2023-07-13T02:03:13;3.72;;;2.20;;
37715;SDS011;23562;50.540;12.504;2023-07-13T02:05:42;5.13;;;2.60;;
37715;SDS011;23562;50.540;12.504;2023-07-13T02:08:08;4.37;;;1.90;;
37715;SDS011;23562;50.540;12.504;2023-07-13T02:10:33;5.53;;;2.42;;
37715;SDS011;23562;50.540;12.504;2023-07-13T02:12:58;4.65;;;2.10;;
37715;SDS011;23562;50.540;12.504;2023-07-13T02:15:23;4.38;;;2.13;;
37715;SDS011;23562;50.540;12.504;2023-07-13T02:17:48;3.30;;;1.80;;
37715;SDS011;23562;50.540;12.504;2023-07-13T02:20:13;3.70;;;2.40;;
37715;SDS011;23562;50.540;12.504;2023-07-13T02:22:38;4.00;;;2.20;;
37715;SDS011;23562;50.540;12.504;2023-07-13T02:25:03;2.08;;;1.83;;
37715;SDS011;23562;50.540;12.504;2023-07-13T02:27:29;3.17;;;1.92;;
37715;SDS011;23562;50.540;12.504;2023-07-13T02:29:54;5.83;;;2.27;;
37715;SDS011;23562;50.540;12.504;2023-07-13T02:32:19;3.88;;;2.45;;
37715;SDS011;23562;50.540;12.504;2023-07-13T02:34:44;3.60;;;2.00;;
37715;SDS011;23562;50.540;12.504;2023-07-13T02:37:10;2.60;;;1.95;;
37715;SDS011;23562;50.540;12.504;2023-07-13T02:39:35;3.47;;;2.22;;
37715;SDS011;23562;50.540;12.504;2023-07-13T02:42:00;2.78;;;1.90;;
37715;SDS011;23562;50.540;12.504;2023-07-13T02:44:26;3.20;;;1.93;;
37715;SDS011;23562;50.540;12.504;2023-07-13T02:46:51;3.25;;;1.70;;
37715;SDS011;23562;50.540;12.504;2023-07-13T02:49:16;3.13;;;1.80;;
37715;SDS011;23562;50.540;12.504;2023-07-13T02:51:41;3.10;;;1.90;;
37715;SDS011;23562;50.540;12.504;2023-07-13T02:54:06;3.78;;;1.83;;
37715;SDS011;23562;50.540;12.504;2023-07-13T02:56:33;3.30;;;2.00;;
37715;SDS011;23562;50.540;12.504;2023-07-13T02:58:58;1.98;;;1.77;;
37715;SDS011;23562;50.540;12.504;2023-07-13T03:01:23;2.92;;;1.80;;
37715;SDS011;23562;50.540;12.504;2023-07-13T03:03:49;7.18;;;1.70;;
37715;SDS011;23562;50.540;12.504;2023-07-13T03:06:14;5.20;;;2.25;;
37715;SDS011;23562;50.540;12.504;2023-07-13T03:08:40;3.78;;;2.15;;
37715;SDS011;23562;50.540;12.504;2023-07-13T03:11:12;4.35;;;2.15;;
37715;SDS011;23562;50.540;12.504;2023-07-13T03:13:38;4.03;;;2.00;;
37715;SDS011;23562;50.540;12.504;2023-07-13T03:16:05;3.53;;;2.70;;
37715;SDS011;23562;50.540;12.504;2023-07-13T03:18:30;3.95;;;2.50;;
37715;SDS011;23562;50.540;12.504;2023-07-13T03:20:55;3.90;;;2.40;;
37715;SDS011;23562;50.540;12.504;2023-07-13T03:23:21;3.30;;;2.10;;
37715;SDS011;23562;50.540;12.504;2023-07-13T03:25:47;7.03;;;2.28;;
37715;SDS011;23562;50.540;12.504;2023-07-13T03:28:13;4.10;;;2.20;;
37715;SDS011;23562;50.540;12.504;2023-07-13T03:30:38;3.15;;;2.30;;
37715;SDS011;23562;50.540;12.504;2023-07-13T03:33:03;3.75;;;2.30;;
37715;SDS011;23562;50.540;12.504;2023-07-13T03:35:28;2.30;;;1.90;;
37715;SDS011;23562;50.540;12.504;2023-07-13T03:37:53;4.93;;;2.17;;
37715;SDS011;23562;50.540;12.504;2023-07-13T03:40:19;6.97;;;2.53;;
37715;SDS011;23562;50.540;12.504;2023-07-13T03:42:44;3.63;;;2.20;;
37715;SDS011;23562;50.540;12.504;2023-07-13T03:45:09;3.22;;;2.20;;
37715;SDS011;23562;50.540;12.504;2023-07-13T03:47:34;4.67;;;2.40;;
37715;SDS011;23562;50.540;12.504;2023-07-13T03:49:59;5.28;;;2.55;;
37715;SDS011;23562;50.540;12.504;2023-07-13T03:52:24;7.28;;;2.25;;
37715;SDS011;23562;50.540;12.504;2023-07-13T03:54:49;4.43;;;2.78;;
37715;SDS011;23562;50.540;12.504;2023-07-13T03:57:15;4.57;;;2.53;;
37715;SDS011;23562;50.540;12.504;2023-07-13T03:59:40;4.75;;;2.50;;
37715;SDS011;23562;50.540;12.504;2023-07-13T04:02:05;4.40;;;2.60;;
37715;SDS011;23562;50.540;12.504;2023-07-13T04:04:30;7.67;;;2.80;;
37715;SDS011;23562;50.540;12.504;2023-07-13T04:06:56;6.60;;;2.55;;
37715;SDS011;23562;50.540;12.504;2023-07-13T04:09:23;3.00;;;2.22;;
37715;SDS011;23562;50.540;12.504;2023-07-13T04:11:51;6.20;;;2.40;;
37715;SDS011;23562;50.540;12.504;2023-07-13T04:14:16;6.07;;;2.70;;
37715;SDS011;23562;50.540;12.504;2023-07-13T04:16:42;3.05;;;2.50;;
37715;SDS011;23562;50.540;12.504;2023-07-13T04:19:07;2.83;;;2.05;;
37715;SDS011;23562;50.540;12.504;2023-07-13T04:21:35;6.25;;;2.42;;
37715;SDS011;23562;50.540;12.504;2023-07-13T04:24:00;6.20;;;2.70;;
37715;SDS011;23562;50.540;12.504;2023-07-13T04:26:25;4.23;;;2.80;;
37715;SDS011;23562;50.540;12.504;2023-07-13T04:28:51;5.18;;;2.72;;
37715;SDS011;23562;50.540;12.504;2023-07-13T04:31:16;5.47;;;2.72;;
37715;SDS011;23562;50.540;12.504;2023-07-13T04:33:41;3.20;;;2.90;;
37715;SDS011;23562;50.540;12.504;2023-07-13T04:36:08;3.83;;;2.90;;
37715;SDS011;23562;50.540;12.504;2023-07-13T04:38:35;3.63;;;2.70;;
37715;SDS011;23562;50.540;12.504;2023-07-13T04:41:01;6.18;;;3.35;;
37715;SDS011;23562;50.540;12.504;2023-07-13T04:43:27;5.03;;;2.53;;
37715;SDS011;23562;50.540;12.504;2023-07-13T04:45:52;3.55;;;2.63;;
37715;SDS011;23562;50.540;12.504;2023-07-13T04:48:18;4.33;;;2.60;;
37715;SDS011;23562;50.540;12.504;2023-07-13T04:50:43;4.22;;;2.83;;
37715;SDS011;23562;50.540;12.504;2023-07-13T04:53:08;5.27;;;2.90;;
37715;SDS011;23562;50.540;12.504;2023-07-13T04:55:33;4.70;;;2.53;;
37715;SDS011;23562;50.540;12.504;2023-07-13T04:57:59;6.50;;;2.60;;
37715;SDS011;23562;50.540;12.504;2023-07-13T05:02:52;5.35;;;2.72;;
37715;SDS011;23562;50.540;12.504;2023-07-13T05:05:17;6.37;;;2.90;;
37715;SDS011;23562;50.540;12.504;2023-07-13T05:07:42;4.17;;;3.00;;
37715;SDS011;23562;50.540;12.504;2023-07-13T05:10:07;6.07;;;3.00;;
37715;SDS011;23562;50.540;12.504;2023-07-13T05:12:33;4.72;;;2.55;;
37715;SDS011;23562;50.540;12.504;2023-07-13T05:14:58;5.55;;;3.33;;
37715;SDS011;23562;50.540;12.504;2023-07-13T05:17:23;3.53;;;2.67;;
37715;SDS011;23562;50.540;12.504;2023-07-13T05:19:48;4.53;;;3.00;;
37715;SDS011;23562;50.540;12.504;2023-07-13T05:22:14;6.38;;;2.90;;
37715;SDS011;23562;50.540;12.504;2023-07-13T05:24:39;6.88;;;3.10;;
37715;SDS011;23562;50.540;12.504;2023-07-13T05:27:04;4.43;;;3.17;;
37715;SDS011;23562;50.540;12.504;2023-07-13T05:29:29;4.60;;;2.67;;
37715;SDS011;23562;50.540;12.504;2023-07-13T05:31:54;4.47;;;2.90;;
37715;SDS011;23562;50.540;12.504;2023-07-13T05:34:19;5.10;;;2.83;;
37715;SDS011;23562;50.540;12.504;2023-07-13T05:36:44;9.57;;;3.33;;
37715;SDS011;23562;50.540;12.504;2023-07-13T05:39:10;5.07;;;3.10;;
37715;SDS011;23562;50.540;12.504;2023-07-13T05:41:36;5.28;;;2.75;;
37715;SDS011;23562;50.540;12.504;2023-07-13T05:44:01;3.55;;;3.03;;
37715;SDS011;23562;50.540;12.504;2023-07-13T05:46:26;7.38;;;2.92;;
37715;SDS011;23562;50.540;12.504;2023-07-13T05:48:51;7.37;;;3.30;;
37715;SDS011;23562;50.540;12.504;2023-07-13T05:51:17;7.25;;;2.80;;
37715;SDS011;23562;50.540;12.504;2023-07-13T05:53:42;5.73;;;3.20;;
37715;SDS011;23562;50.540;12.504;2023-07-13T05:56:07;8.40;;;2.70;;
37715;SDS011;23562;50.540;12.504;2023-07-13T05:58:32;4.93;;;2.57;;
37715;SDS011;23562;50.540;12.504;2023-07-13T06:00:58;4.97;;;2.30;;
37715;SDS011;23562;50.540;12.504;2023-07-13T06:03:24;7.30;;;2.33;;
37715;SDS011;23562;50.540;12.504;2023-07-13T06:05:49;3.10;;;2.00;;
37715;SDS011;23562;50.540;12.504;2023-07-13T06:08:14;6.13;;;2.30;;
37715;SDS011;23562;50.540;12.504;2023-07-13T06:10:39;4.22;;;2.22;;
37715;SDS011;23562;50.540;12.504;2023-07-13T06:13:04;5.40;;;2.35;;
37715;SDS011;23562;50.540;12.504;2023-07-13T06:15:29;6.50;;;2.55;;
37715;SDS011;23562;50.540;12.504;2023-07-13T06:17:54;5.88;;;2.50;;
37715;SDS011;23562;50.540;12.504;2023-07-13T06:20:20;6.77;;;2.20;;
37715;SDS011;23562;50.540;12.504;2023-07-13T06:22:45;8.43;;;2.08;;
37715;SDS011;23562;50.540;12.504;2023-07-13T06:25:10;3.53;;;2.20;;
37715;SDS011;23562;50.540;12.504;2023-07-13T06:27:35;4.72;;;1.92;;
37715;SDS011;23562;50.540;12.504;2023-07-13T06:30:00;3.83;;;2.10;;
37715;SDS011;23562;50.540;12.504;2023-07-13T06:32:25;4.50;;;1.80;;
37715;SDS011;23562;50.540;12.504;2023-07-13T06:34:50;7.73;;;2.40;;
37715;SDS011;23562;50.540;12.504;2023-07-13T06:37:16;5.65;;;2.00;;
37715;SDS011;23562;50.540;12.504;2023-07-13T06:39:42;5.07;;;2.33;;
37715;SDS011;23562;50.540;12.504;2023-07-13T06:42:07;4.70;;;1.97;;
37715;SDS011;23562;50.540;12.504;2023-07-13T06:44:32;6.85;;;2.25;;
37715;SDS011;23562;50.540;12.504;2023-07-13T06:46:57;5.93;;;2.13;;
37715;SDS011;23562;50.540;12.504;2023-07-13T06:49:22;6.32;;;2.15;;
37715;SDS011;23562;50.540;12.504;2023-07-13T06:51:47;3.70;;;1.80;;
37715;SDS011;23562;50.540;12.504;2023-07-13T06:54:13;7.88;;;2.40;;
37715;SDS011;23562;50.540;12.504;2023-07-13T06:56:38;5.43;;;2.00;;
37715;SDS011;23562;50.540;12.504;2023-07-13T06:59:03;7.15;;;2.20;;
37715;SDS011;23562;50.540;12.504;2023-07-13T07:01:28;8.63;;;2.00;;
37715;SDS011;23562;50.540;12.504;2023-07-13T07:03:54;7.90;;;2.28;;
37715;SDS011;23562;50.540;12.504;2023-07-13T07:06:20;5.10;;;2.13;;
37715;SDS011;23562;50.540;12.504;2023-07-13T07:08:46;7.20;;;1.92;;
37715;SDS011;23562;50.540;12.504;2023-07-13T07:11:12;3.50;;;2.05;;
37715;SDS011;23562;50.540;12.504;2023-07-13T07:13:38;6.60;;;2.00;;
37715;SDS011;23562;50.540;12.504;2023-07-13T07:16:03;4.20;;;2.17;;
37715;SDS011;23562;50.540;12.504;2023-07-13T07:18:28;8.77;;;2.50;;
37715;SDS011;23562;50.540;12.504;2023-07-13T07:20:53;6.23;;;2.43;;
37715;SDS011;23562;50.540;12.504;2023-07-13T07:23:18;5.90;;;2.50;;
37715;SDS011;23562;50.540;12.504;2023-07-13T07:25:44;3.90;;;2.00;;
37715;SDS011;23562;50.540;12.504;2023-07-13T07:28:09;8.70;;;2.50;;
37715;SDS011;23562;50.540;12.504;2023-07-13T07:30:34;6.87;;;2.77;;
37715;SDS011;23562;50.540;12.504;2023-07-13T07:33:00;6.22;;;2.42;;
37715;SDS011;23562;50.540;12.504;2023-07-13T07:35:26;6.82;;;2.92;;
37715;SDS011;23562;50.540;12.504;2023-07-13T07:37:51;4.53;;;2.72;;
37715;SDS011;23562;50.540;12.504;2023-07-13T07:40:16;5.60;;;2.60;;
37715;SDS011;23562;50.540;12.504;2023-07-13T07:42:41;5.00;;;2.80;;
37715;SDS011;23562;50.540;12.504;2023-07-13T07:45:06;9.53;;;2.77;;
37715;SDS011;23562;50.540;12.504;2023-07-13T07:47:32;9.02;;;3.33;;
37715;SDS011;23562;50.540;12.504;2023-07-13T07:49:57;4.80;;;3.17;;
37715;SDS011;23562;50.540;12.504;2023-07-13T07:52:22;6.33;;;4.20;;
37715;SDS011;23562;50.540;12.504;2023-07-13T07:54:47;9.23;;;3.70;;
37715;SDS011;23562;50.540;12.504;2023-07-13T07:57:12;9.27;;;3.35;;
37715;SDS011;23562;50.540;12.504;2023-07-13T07:59:38;7.32;;;3.22;;
37715;SDS011;23562;50.540;12.504;2023-07-13T08:02:03;10.48;;;3.50;;
37715;SDS011;23562;50.540;12.504;2023-07-13T08:04:28;5.13;;;2.60;;
37715;SDS011;23562;50.540;12.504;2023-07-13T08:06:53;7.68;;;3.13;;
37715;SDS011;23562;50.540;12.504;2023-07-13T08:09:21;7.15;;;2.83;;
37715;SDS011;23562;50.540;12.504;2023-07-13T08:11:46;7.22;;;2.50;;
37715;SDS011;23562;50.540;12.504;2023-07-13T08:14:11;6.90;;;3.03;;
37715;SDS011;23562;50.540;12.504;2023-07-13T08:16:36;6.03;;;2.00;;
37715;SDS011;23562;50.540;12.504;2023-07-13T08:19:01;6.07;;;2.30;;
37715;SDS011;23562;50.540;12.504;2023-07-13T08:21:26;5.82;;;2.10;;
37715;SDS011;23562;50.540;12.504;2023-07-13T08:23:52;5.97;;;2.33;;
37715;SDS011;23562;50.540;12.504;2023-07-13T08:26:17;4.28;;;1.80;;
37715;SDS011;23562;50.540;12.504;2023-07-13T08:28:42;7.57;;;2.10;;
37715;SDS011;23562;50.540;12.504;2023-07-13T08:31:07;7.83;;;2.37;;
37715;SDS011;23562;50.540;12.504;2023-07-13T08:33:34;3.80;;;2.20;;
37715;SDS011;23562;50.540;12.504;2023-07-13T08:35:59;5.25;;;2.20;;
37715;SDS011;23562;50.540;12.504;2023-07-13T08:38:24;6.72;;;2.10;;
37715;SDS011;23562;50.540;12.504;2023-07-13T08:40:51;3.37;;;1.90;;
37715;SDS011;23562;50.540;12.504;2023-07-13T08:43:18;4.47;;;2.70;;
37715;SDS011;23562;50.540;12.504;2023-07-13T08:46:04;6.07;;;2.17;;
37715;SDS011;23562;50.540;12.504;2023-07-13T08:48:32;5.22;;;2.40;;
37715;SDS011;23562;50.540;12.504;2023-07-13T08:53:46;7.28;;;2.65;;
37715;SDS011;23562;50.540;12.504;2023-07-13T08:56:17;5.18;;;2.25;;
37715;SDS011;23562;50.540;12.504;2023-07-13T08:58:43;8.23;;;2.47;;
37715;SDS011;23562;50.540;12.504;2023-07-13T09:03:37;5.85;;;2.15;;
37715;SDS011;23562;50.540;12.504;2023-07-13T09:06:04;5.57;;;2.50;;
37715;SDS011;23562;50.540;12.504;2023-07-13T09:11:11;5.95;;;2.97;;
37715;SDS011;23562;50.540;12.504;2023-07-13T09:16:15;5.13;;;2.67;;
37715;SDS011;23562;50.540;12.504;2023-07-13T09:18:42;5.83;;;2.87;;
37715;SDS011;23562;50.540;12.504;2023-07-13T09:21:18;6.18;;;2.90;;
37715;SDS011;23562;50.540;12.504;2023-07-13T09:23:45;6.32;;;2.33;;
37715;SDS011;23562;50.540;12.504;2023-07-13T09:26:19;4.18;;;2.20;;
37715;SDS011;23562;50.540;12.504;2023-07-13T09:28:46;6.63;;;2.38;;
37715;SDS011;23562;50.540;12.504;2023-07-13T09:31:16;5.10;;;2.58;;
37715;SDS011;23562;50.540;12.504;2023-07-13T09:33:42;5.70;;;2.20;;
37715;SDS011;23562;50.540;12.504;2023-07-13T09:36:19;7.25;;;2.50;;
37715;SDS011;23562;50.540;12.504;2023-07-13T09:38:45;7.18;;;2.55;;
37715;SDS011;23562;50.540;12.504;2023-07-13T09:41:17;7.38;;;2.45;;
37715;SDS011;23562;50.540;12.504;2023-07-13T09:46:27;4.22;;;2.33;;
37715;SDS011;23562;50.540;12.504;2023-07-13T09:48:53;5.70;;;2.58;;
37715;SDS011;23562;50.540;12.504;2023-07-13T09:51:20;5.22;;;2.72;;
37715;SDS011;23562;50.540;12.504;2023-07-13T09:53:45;5.82;;;2.40;;
37715;SDS011;23562;50.540;12.504;2023-07-13T09:58:45;5.00;;;2.58;;
37715;SDS011;23562;50.540;12.504;2023-07-13T10:01:10;5.80;;;2.60;;
37715;SDS011;23562;50.540;12.504;2023-07-13T10:03:36;6.63;;;2.50;;
37715;SDS011;23562;50.540;12.504;2023-07-13T10:06:11;6.10;;;2.80;;
37715;SDS011;23562;50.540;12.504;2023-07-13T10:08:36;8.70;;;2.20;;
37715;SDS011;23562;50.540;12.504;2023-07-13T10:11:36;6.13;;;2.13;;
37715;SDS011;23562;50.540;12.504;2023-07-13T10:13:59;6.35;;;2.22;;
37715;SDS011;23562;50.540;12.504;2023-07-13T10:16:26;4.97;;;2.35;;
37715;SDS011;23562;50.540;12.504;2023-07-13T10:18:57;9.60;;;2.50;;
37715;SDS011;23562;50.540;12.504;2023-07-13T10:21:23;5.90;;;2.40;;
37715;SDS011;23562;50.540;12.504;2023-07-13T10:23:55;7.07;;;2.17;;
37715;SDS011;23562;50.540;12.504;2023-07-13T10:26:26;5.18;;;2.00;;
37715;SDS011;23562;50.540;12.504;2023-07-13T10:28:56;5.72;;;2.40;;
37715;SDS011;23562;50.540;12.504;2023-07-13T10:31:22;7.43;;;2.38;;
37715;SDS011;23562;50.540;12.504;2023-07-13T10:33:47;3.25;;;1.85;;
37715;SDS011;23562;50.540;12.504;2023-07-13T10:36:16;5.80;;;2.05;;
37715;SDS011;23562;50.540;12.504;2023-07-13T10:38:41;5.55;;;1.88;;
37715;SDS011;23562;50.540;12.504;2023-07-13T10:41:10;3.78;;;2.40;;
37715;SDS011;23562;50.540;12.504;2023-07-13T10:43:40;5.38;;;2.20;;
37715;SDS011;23562;50.540;12.504;2023-07-13T10:46:07;6.80;;;2.30;;
37715;SDS011;23562;50.540;12.504;2023-07-13T10:48:33;5.82;;;2.25;;
37715;SDS011;23562;50.540;12.504;2023-07-13T10:50:59;6.22;;;2.20;;
37715;SDS011;23562;50.540;12.504;2023-07-13T10:53:44;5.93;;;2.40;;
37715;SDS011;23562;50.540;12.504;2023-07-13T10:58:41;5.25;;;2.30;;
37715;SDS011;23562;50.540;12.504;2023-07-13T11:01:11;5.20;;;2.20;;
37715;SDS011;23562;50.540;12.504;2023-07-13T11:03:38;6.97;;;2.28;;
37715;SDS011;23562;50.540;12.504;2023-07-13T11:06:12;6.22;;;2.08;;
37715;SDS011;23562;50.540;12.504;2023-07-13T11:11:54;3.85;;;1.90;;
37715;SDS011;23562;50.540;12.504;2023-07-13T11:14:26;4.20;;;1.83;;
37715;SDS011;23562;50.540;12.504;2023-07-13T11:16:51;4.93;;;2.10;;
37715;SDS011;23562;50.540;12.504;2023-07-13T11:24:28;5.80;;;2.00;;
37715;SDS011;23562;50.540;12.504;2023-07-13T11:26:55;4.10;;;2.10;;
37715;SDS011;23562;50.540;12.504;2023-07-13T11:29:33;6.05;;;2.58;;
37715;SDS011;23562;50.540;12.504;2023-07-13T11:31:59;4.32;;;2.15;;
37715;SDS011;23562;50.540;12.504;2023-07-13T11:34:35;6.07;;;2.40;;
37715;SDS011;23562;50.540;12.504;2023-07-13T11:37:01;7.22;;;2.35;;
37715;SDS011;23562;50.540;12.504;2023-07-13T11:41:56;4.13;;;2.03;;
37715;SDS011;23562;50.540;12.504;2023-07-13T11:44:23;5.03;;;2.17;;
37715;SDS011;23562;50.540;12.504;2023-07-13T11:46:50;3.45;;;2.00;;
37715;SDS011;23562;50.540;12.504;2023-07-13T11:49:16;5.75;;;1.83;;
37715;SDS011;23562;50.540;12.504;2023-07-13T11:51:41;4.60;;;2.38;;
37715;SDS011;23562;50.540;12.504;2023-07-13T11:54:15;6.15;;;2.53;;
37715;SDS011;23562;50.540;12.504;2023-07-13T11:56:41;4.68;;;2.03;;
37715;SDS011;23562;50.540;12.504;2023-07-13T11:59:07;5.35;;;2.10;;
37715;SDS011;23562;50.540;12.504;2023-07-13T12:01:33;8.57;;;2.55;;
37715;SDS011;23562;50.540;12.504;2023-07-13T12:03:59;3.72;;;2.03;;
37715;SDS011;23562;50.540;12.504;2023-07-13T12:06:26;3.80;;;2.10;;
37715;SDS011;23562;50.540;12.504;2023-07-13T12:08:55;6.07;;;2.35;;
37715;SDS011;23562;50.540;12.504;2023-07-13T12:11:20;6.22;;;2.20;;
37715;SDS011;23562;50.540;12.504;2023-07-13T12:13:47;7.03;;;2.72;;
37715;SDS011;23562;50.540;12.504;2023-07-13T12:16:17;6.53;;;2.67;;
37715;SDS011;23562;50.540;12.504;2023-07-13T12:18:45;6.25;;;2.72;;
37715;SDS011;23562;50.540;12.504;2023-07-13T12:21:12;4.75;;;1.80;;
37715;SDS011;23562;50.540;12.504;2023-07-13T12:23:38;5.15;;;2.20;;
37715;SDS011;23562;50.540;12.504;2023-07-13T12:26:03;2.47;;;1.60;;
37715;SDS011;23562;50.540;12.504;2023-07-13T12:30:58;4.70;;;1.90;;
37715;SDS011;23562;50.540;12.504;2023-07-13T12:33:23;4.40;;;1.98;;
37715;SDS011;23562;50.540;12.504;2023-07-13T12:35:50;4.63;;;1.95;;
37715;SDS011;23562;50.540;12.504;2023-07-13T12:38:17;3.85;;;1.90;;
37715;SDS011;23562;50.540;12.504;2023-07-13T12:40:42;4.90;;;1.88;;
37715;SDS011;23562;50.540;12.504;2023-07-13T12:43:11;3.83;;;1.90;;
37715;SDS011;23562;50.540;12.504;2023-07-13T12:45:37;6.97;;;1.92;;
37715;SDS011;23562;50.540;12.504;2023-07-13T12:48:04;3.28;;;1.75;;
37715;SDS011;23562;50.540;12.504;2023-07-13T12:50:37;5.30;;;1.90;;
37715;SDS011;23562;50.540;12.504;2023-07-13T12:53:03;2.90;;;1.73;;
37715;SDS011;23562;50.540;12.504;2023-07-13T12:55:32;6.43;;;1.88;;
37715;SDS011;23562;50.540;12.504;2023-07-13T12:58:06;3.60;;;1.50;;
37715;SDS011;23562;50.540;12.504;2023-07-13T13:00:36;6.70;;;1.70;;
37715;SDS011;23562;50.540;12.504;2023-07-13T13:03:06;4.82;;;1.75;;
37715;SDS011;23562;50.540;12.504;2023-07-13T13:05:32;4.28;;;1.90;;
37715;SDS011;23562;50.540;12.504;2023-07-13T13:07:57;6.00;;;1.80;;
37715;SDS011;23562;50.540;12.504;2023-07-13T13:10:22;2.50;;;1.53;;
37715;SDS011;23562;50.540;12.504;2023-07-13T13:12:48;6.73;;;1.70;;
37715;SDS011;23562;50.540;12.504;2023-07-13T13:15:13;4.87;;;1.70;;
37715;SDS011;23562;50.540;12.504;2023-07-13T13:17:38;3.10;;;1.80;;
37715;SDS011;23562;50.540;12.504;2023-07-13T13:20:17;3.38;;;1.85;;
37715;SDS011;23562;50.540;12.504;2023-07-13T13:22:42;3.42;;;1.30;;
37715;SDS011;23562;50.540;12.504;2023-07-13T13:25:11;3.10;;;1.80;;
37715;SDS011;23562;50.540;12.504;2023-07-13T13:27:37;4.63;;;1.80;;
37715;SDS011;23562;50.540;12.504;2023-07-13T13:30:02;3.05;;;1.70;;
37715;SDS011;23562;50.540;12.504;2023-07-13T13:32:27;5.43;;;1.85;;
37715;SDS011;23562;50.540;12.504;2023-07-13T13:34:53;3.22;;;1.80;;
37715;SDS011;23562;50.540;12.504;2023-07-13T13:37:20;5.70;;;1.52;;
37715;SDS011;23562;50.540;12.504;2023-07-13T13:39:45;15.60;;;1.77;;
37715;SDS011;23562;50.540;12.504;2023-07-13T13:42:11;2.55;;;1.30;;
37715;SDS011;23562;50.540;12.504;2023-07-13T13:44:37;2.43;;;1.50;;
37715;SDS011;23562;50.540;12.504;2023-07-13T13:47:02;3.13;;;1.60;;
37715;SDS011;23562;50.540;12.504;2023-07-13T13:49:27;2.72;;;1.60;;
37715;SDS011;23562;50.540;12.504;2023-07-13T13:51:53;4.63;;;1.80;;
37715;SDS011;23562;50.540;12.504;2023-07-13T13:54:19;3.78;;;1.63;;
37715;SDS011;23562;50.540;12.504;2023-07-13T13:56:48;4.18;;;1.42;;
37715;SDS011;23562;50.540;12.504;2023-07-13T13:59:14;3.13;;;1.48;;
37715;SDS011;23562;50.540;12.504;2023-07-13T14:01:39;2.38;;;1.60;;
37715;SDS011;23562;50.540;12.504;2023-07-13T14:04:05;2.40;;;1.40;;
37715;SDS011;23562;50.540;12.504;2023-07-13T14:06:31;7.68;;;1.40;;
37715;SDS011;23562;50.540;12.504;2023-07-13T14:08:56;1.85;;;1.30;;
37715;SDS011;23562;50.540;12.504;2023-07-13T14:11:21;5.60;;;1.50;;
37715;SDS011;23562;50.540;12.504;2023-07-13T14:13:54;5.57;;;1.63;;
37715;SDS011;23562;50.540;12.504;2023-07-13T14:16:20;3.00;;;1.50;;
37715;SDS011;23562;50.540;12.504;2023-07-13T14:18:47;5.22;;;1.92;;
37715;SDS011;23562;50.540;12.504;2023-07-13T14:21:13;1.95;;;1.52;;
37715;SDS011;23562;50.540;12.504;2023-07-13T14:23:38;3.95;;;1.30;;
37715;SDS011;23562;50.540;12.504;2023-07-13T14:26:07;3.33;;;1.30;;
37715;SDS011;23562;50.540;12.504;2023-07-13T14:28:33;1.45;;;1.20;;
37715;SDS011;23562;50.540;12.504;2023-07-13T14:30:59;2.33;;;1.17;;
37715;SDS011;23562;50.540;12.504;2023-07-13T14:33:24;2.13;;;1.33;;
37715;SDS011;23562;50.540;12.504;2023-07-13T14:35:50;2.92;;;1.20;;
37715;SDS011;23562;50.540;12.504;2023-07-13T14:38:16;2.45;;;1.40;;
37715;SDS011;23562;50.540;12.504;2023-07-13T14:40:43;2.80;;;1.50;;
37715;SDS011;23562;50.540;12.504;2023-07-13T14:43:11;4.75;;;1.60;;
37715;SDS011;23562;50.540;12.504;2023-07-13T14:45:38;5.15;;;1.50;;
37715;SDS011;23562;50.540;12.504;2023-07-13T14:48:08;3.28;;;1.20;;
37715;SDS011;23562;50.540;12.504;2023-07-13T14:50:34;2.10;;;1.00;;
37715;SDS011;23562;50.540;12.504;2023-07-13T14:53:00;2.85;;;1.00;;
37715;SDS011;23562;50.540;12.504;2023-07-13T14:55:25;5.33;;;2.23;;
37715;SDS011;23562;50.540;12.504;2023-07-13T14:57:51;2.00;;;1.10;;
37715;SDS011;23562;50.540;12.504;2023-07-13T15:00:17;1.97;;;0.90;;
37715;SDS011;23562;50.540;12.504;2023-07-13T15:02:47;1.27;;;1.00;;
37715;SDS011;23562;50.540;12.504;2023-07-13T15:05:14;2.85;;;1.05;;
37715;SDS011;23562;50.540;12.504;2023-07-13T15:07:40;3.25;;;1.00;;